Time;durP1;ratioP1;P1;durP2;ratioP2;P2;SDS_P1;SDS_P2;PMS_P1;PMS_P2;Temp;Humidity;BMP_temperature;BMP_pressure;BME280_temperature;BME280_humidity;BME280_pressure;Samples;Min_cycle;Max_cycle;Signal;HPM_P1;HPM_P2
2023/04/11 00:02:26;;;;;;;;;;;;;;;16.67;46.47;100845.19;7248631;19;153726;-55
2023/04/11 00:04:53;;;;;;;;;;;;;;;16.69;46.24;100847.69;7248304;19;153052;-55
2023/04/11 00:07:20;;;;;;;;;;;;;;;16.67;46.31;100847.16;7248580;19;153472;-56
2023/04/11 00:09:47;;;;;;;;;;;;;;;16.70;46.25;100849.38;7260796;19;154050;-55
2023/04/11 00:12:14;;;;;;;;;;;;;;;16.67;46.48;100847.97;7260326;19;155142;-55
2023/04/11 00:14:44;;;;;;;;;;;;;;;16.66;46.56;100849.09;7262293;19;152432;-55
2023/04/11 00:17:11;;;;;;;;;;;;;;;16.67;46.49;100859.13;7254183;19;154446;-55
2023/04/11 00:19:38;;;;;;;;;;;;;;;16.66;46.29;100860.28;7252828;19;155029;-55
2023/04/11 00:22:05;;;;;;;;;;;;;;;16.67;46.69;100872.25;7256796;19;152680;-55
2023/04/11 00:24:32;;;;;;;;;;;;;;;16.66;46.44;100870.59;7255686;19;157186;-55
2023/04/11 00:27:00;;;;;;;;;;;;;;;16.62;46.53;100875.91;7253534;19;153997;-55
2023/04/11 00:29:27;;;;;;;;;;;;;;;16.63;46.69;100869.19;7257854;19;152680;-55
2023/04/11 00:31:55;;;;;;;;;;;;;;;16.65;46.73;100868.91;7257776;19;153104;-56
2023/04/11 00:34:22;;;;;;;;;;;;;;;16.65;46.67;100871.69;7263229;19;153964;-56
2023/04/11 00:36:49;;;;;;;;;;;;;;;16.65;46.40;100869.75;7255604;19;153705;-57
2023/04/11 00:39:17;;;;;;;;;;;;;;;16.62;46.49;100872.28;7255964;19;154425;-56
2023/04/11 00:41:44;;;;;;;;;;;;;;;16.63;46.32;100877.56;7257590;19;153643;-57
2023/04/11 00:44:12;;;;;;;;;;;;;;;16.65;46.80;100892.06;7256686;19;153409;-56
2023/04/11 00:46:41;;;;;;;;;;;;;;;16.61;46.62;100882.59;7253042;19;154254;-56
2023/04/11 00:49:11;;;;;;;;;;;;;;;16.62;46.74;100894.59;7254752;19;153882;-56
2023/04/11 00:51:38;;;;;;;;;;;;;;;16.63;46.50;100901.81;7256565;19;152793;-56
2023/04/11 00:54:09;;;;;;;;;;;;;;;16.62;46.49;100903.78;7254411;19;154302;-56
2023/04/11 00:56:36;;;;;;;;;;;;;;;16.61;46.56;100906.84;7261524;19;154198;-56
2023/04/11 00:59:03;;;;;;;;;;;;;;;16.64;46.60;100907.13;7251339;19;153234;-55
2023/04/11 01:01:34;;;;;;;;;;;;;;;16.60;46.62;100914.38;7258058;19;154191;-56
2023/04/11 01:04:02;;;;;;;;;;;;;;;16.58;46.64;100911.03;7251001;19;154520;-57
2023/04/11 01:06:30;;;;;;;;;;;;;;;16.60;46.60;100914.38;7251678;19;155669;-56
2023/04/11 01:08:57;;;;;;;;;;;;;;;16.61;46.38;100912.44;7255249;19;154343;-56
2023/04/11 01:11:24;;;;;;;;;;;;;;;16.60;46.42;100908.81;7258802;19;153306;-56
2023/04/11 01:13:51;;;;;;;;;;;;;;;16.58;46.76;100908.25;7254399;19;153365;-55
2023/04/11 01:16:20;;;;;;;;;;;;;;;16.58;46.92;100908.25;7254740;19;153442;-56
2023/04/11 01:18:47;;;;;;;;;;;;;;;16.55;46.86;100899.59;7258916;19;153756;-56
2023/04/11 01:21:16;;;;;;;;;;;;;;;16.58;46.58;100899.88;7254924;19;152748;-56
2023/04/11 01:23:43;;;;;;;;;;;;;;;16.55;46.66;100906.00;7253381;19;154041;-56
2023/04/11 01:26:11;;;;;;;;;;;;;;;16.55;46.88;100903.22;7252067;19;154430;-56
2023/04/11 01:28:38;;;;;;;;;;;;;;;16.57;46.57;100897.34;7255736;19;153332;-56
2023/04/11 01:31:05;;;;;;;;;;;;;;;16.56;46.43;100902.09;7255280;19;153354;-56
2023/04/11 01:33:32;;;;;;;;;;;;;;;16.54;46.48;100900.69;7250679;19;153517;-56
2023/04/11 01:35:59;;;;;;;;;;;;;;;16.54;46.63;100920.22;7252569;19;153316;-56
2023/04/11 01:38:26;;;;;;;;;;;;;;;16.52;46.76;100919.69;7252618;19;153174;-56
2023/04/11 01:40:54;;;;;;;;;;;;;;;16.52;46.92;100919.69;7263202;19;153756;-56
2023/04/11 01:43:22;;;;;;;;;;;;;;;16.52;46.77;100920.50;7256529;19;153095;-56
2023/04/11 01:45:49;;;;;;;;;;;;;;;16.50;46.78;100927.47;7248883;19;154544;-56
2023/04/11 01:48:16;;;;;;;;;;;;;;;16.52;46.89;100925.25;7252793;19;154301;-56
2023/04/11 01:50:43;;;;;;;;;;;;;;;16.51;46.92;100930.00;7256798;19;153411;-56
2023/04/11 01:53:09;;;;;;;;;;;;;;;16.52;46.76;100933.63;7256429;19;153909;-56
2023/04/11 01:55:36;;;;;;;;;;;;;;;16.53;46.73;100938.94;7253641;19;155304;-56
2023/04/11 01:58:03;;;;;;;;;;;;;;;16.52;46.68;100945.63;7249677;19;153427;-56
2023/04/11 02:00:31;;;;;;;;;;;;;;;16.52;46.71;100940.03;7254313;19;154361;-56
2023/04/11 02:02:58;;;;;;;;;;;;;;;16.51;46.52;100943.94;7260038;19;154421;-56
2023/04/11 02:05:25;;;;;;;;;;;;;;;16.49;46.48;100946.16;7252917;19;153678;-56
2023/04/11 02:07:52;;;;;;;;;;;;;;;16.48;46.61;100944.50;7250235;19;154104;-56
2023/04/11 02:10:19;;;;;;;;;;;;;;;16.48;46.49;100940.88;7255336;19;153085;-56
2023/04/11 02:12:46;;;;;;;;;;;;;;;16.46;46.64;100939.22;7253695;19;153966;-55
2023/04/11 02:15:13;;;;;;;;;;;;;;;16.45;46.86;100943.09;7251791;19;154255;-56
2023/04/11 02:17:43;;;;;;;;;;;;;;;16.48;46.61;100947.31;7248765;19;153530;-56
2023/04/11 02:20:12;;;;;;;;;;;;;;;16.48;46.52;100944.50;7256263;19;155515;-56
2023/04/11 02:22:39;;;;;;;;;;;;;;;16.46;46.94;100947.56;7255091;19;153417;-56
2023/04/11 02:25:06;;;;;;;;;;;;;;;16.44;46.80;100948.97;7259184;19;152907;-56
2023/04/11 02:27:33;;;;;;;;;;;;;;;16.50;46.55;100960.94;7249994;19;153228;-56
2023/04/11 02:30:04;;;;;;;;;;;;;;;16.45;46.70;100954.25;7254900;19;153831;-56
2023/04/11 02:32:33;;;;;;;;;;;;;;;16.50;46.85;100953.41;7254009;19;156131;-55
2023/04/11 02:35:00;;;;;;;;;;;;;;;16.48;46.85;100960.41;7248821;19;153923;-55
2023/04/11 02:37:27;;;;;;;;;;;;;;;16.42;46.67;100954.81;7249657;19;154156;-56
2023/04/11 02:39:54;;;;;;;;;;;;;;;16.45;46.83;100959.00;7252842;19;153464;-56
2023/04/11 02:42:21;;;;;;;;;;;;;;;16.43;46.50;100962.09;7250651;19;155084;-56
2023/04/11 02:44:48;;;;;;;;;;;;;;;16.42;46.83;100968.78;7257247;19;153692;-56
2023/04/11 02:47:15;;;;;;;;;;;;;;;16.43;46.49;100976.03;7251484;19;152483;-56
2023/04/11 02:49:42;;;;;;;;;;;;;;;16.43;46.50;100977.97;7253180;19;153633;-56
2023/04/11 02:52:09;;;;;;;;;;;;;;;16.42;46.89;100973.50;7253292;19;155772;-56
2023/04/11 02:54:36;;;;;;;;;;;;;;;16.40;46.52;100982.13;7251308;19;151894;-56
2023/04/11 02:57:03;;;;;;;;;;;;;;;16.39;46.56;100977.72;7249282;19;153842;-56
2023/04/11 02:59:30;;;;;;;;;;;;;;;16.40;46.68;100972.94;7252085;19;154437;-55
2023/04/11 03:01:58;;;;;;;;;;;;;;;16.43;46.39;100976.03;7252558;19;153895;-55
2023/04/11 03:04:25;;;;;;;;;;;;;;;16.38;46.79;100973.25;7249063;19;154208;-55
2023/04/11 03:06:52;;;;;;;;;;;;;;;16.42;46.64;100970.72;7257704;19;153292;-55
2023/04/11 03:09:20;;;;;;;;;;;;;;;16.40;46.65;100971.00;7248631;19;153597;-55
2023/04/11 03:11:46;;;;;;;;;;;;;;;16.40;46.46;100964.56;7251082;19;153442;-56
2023/04/11 03:14:14;;;;;;;;;;;;;;;16.43;46.68;100970.44;7252456;19;153673;-55
2023/04/11 03:16:41;;;;;;;;;;;;;;;16.40;46.85;100968.19;7251484;19;153866;-55
2023/04/11 03:19:08;;;;;;;;;;;;;;;16.36;46.98;100974.63;7246150;19;154198;-55
2023/04/11 03:21:35;;;;;;;;;;;;;;;16.38;46.46;100977.97;7252838;19;152627;-55
2023/04/11 03:24:01;;;;;;;;;;;;;;;16.34;46.84;100977.72;7250958;19;153133;-55
2023/04/11 03:26:28;;;;;;;;;;;;;;;16.36;46.47;100980.19;7252351;19;154271;-56
2023/04/11 03:28:55;;;;;;;;;;;;;;;16.35;47.00;100982.13;7256626;19;153947;-55
2023/04/11 03:31:23;;;;;;;;;;;;;;;16.37;46.46;100988.28;7252551;19;154492;-55
2023/04/11 03:33:50;;;;;;;;;;;;;;;16.34;46.80;100986.06;7248621;19;152475;-55
2023/04/11 03:36:17;;;;;;;;;;;;;;;16.35;46.64;100986.91;7251938;19;153870;-54
2023/04/11 03:38:44;;;;;;;;;;;;;;;16.34;46.98;100980.50;7253441;19;155434;-55
2023/04/11 03:41:11;;;;;;;;;;;;;;;16.36;46.74;100980.19;7255085;19;153479;-55
2023/04/11 03:43:38;;;;;;;;;;;;;;;16.37;46.59;100985.50;7259599;19;153407;-56
2023/04/11 03:46:05;;;;;;;;;;;;;;;16.33;46.80;100981.59;7255740;19;153417;-55
2023/04/11 03:48:32;;;;;;;;;;;;;;;16.35;46.82;100979.34;7255686;19;153822;-55
2023/04/11 03:50:59;;;;;;;;;;;;;;;16.32;46.64;100979.94;7262851;19;153799;-55
2023/04/11 03:53:26;;;;;;;;;;;;;;;16.33;46.79;100977.97;7258165;19;153446;-55
2023/04/11 03:55:53;;;;;;;;;;;;;;;16.32;46.61;100974.34;7255213;19;153226;-55
2023/04/11 03:58:20;;;;;;;;;;;;;;;16.28;47.08;100970.44;7255760;19;154076;-55
2023/04/11 04:00:47;;;;;;;;;;;;;;;16.28;47.08;100972.41;7258488;19;153141;-55
2023/04/11 04:03:14;;;;;;;;;;;;;;;16.32;46.98;100967.94;7261114;19;154053;-55
2023/04/11 04:05:41;;;;;;;;;;;;;;;16.30;47.02;100964.59;7253583;19;154471;-56
2023/04/11 04:08:08;;;;;;;;;;;;;;;16.32;46.82;100970.72;7256506;19;152945;-55
2023/04/11 04:10:35;;;;;;;;;;;;;;;16.29;46.68;100974.91;7256727;19;153775;-55
2023/04/11 04:13:02;;;;;;;;;;;;;;;16.29;46.84;100982.44;7263306;19;153349;-55
2023/04/11 04:15:29;;;;;;;;;;;;;;;16.30;47.03;100972.97;7258186;19;153682;-54
2023/04/11 04:17:56;;;;;;;;;;;;;;;16.32;46.97;100979.94;7251954;19;154044;-55
2023/04/11 04:20:23;;;;;;;;;;;;;;;16.28;46.74;100984.38;7256033;19;153430;-56
2023/04/11 04:22:52;;;;;;;;;;;;;;;16.29;46.82;100997.22;7257683;19;155026;-55
2023/04/11 04:25:19;;;;;;;;;;;;;;;16.29;46.67;100985.22;7255693;19;155169;-55
2023/04/11 04:27:52;;;;;;;;;;;;;;;16.30;46.61;100998.06;7257170;19;153919;-55
2023/04/11 04:30:20;;;;;;;;;;;;;;;16.28;46.92;101000.28;7257991;19;153918;-55
2023/04/11 04:32:53;;;;;;;;;;;;;;;16.29;46.59;100999.16;7256910;19;154614;-55
2023/04/11 04:35:20;;;;;;;;;;;;;;;16.29;46.71;100996.38;7265365;19;153380;-55
2023/04/11 04:37:48;;;;;;;;;;;;;;;16.27;46.62;100998.59;7255604;19;153854;-55
2023/04/11 04:40:19;;;;;;;;;;;;;;;16.27;46.86;100995.81;7257777;19;154703;-55
2023/04/11 04:42:56;;;;;;;;;;;;;;;16.25;46.93;101000.84;7258060;19;154091;-55
2023/04/11 04:45:25;;;;;;;;;;;;;;;16.23;46.52;101009.47;7255830;19;154002;-55
2023/04/11 04:47:52;;;;;;;;;;;;;;;16.27;46.70;101009.75;7253918;19;152821;-55
2023/04/11 04:50:19;;;;;;;;;;;;;;;16.28;46.76;101005.84;7255119;19;153369;-55
2023/04/11 04:52:46;;;;;;;;;;;;;;;16.27;46.45;101006.97;7253425;19;154017;-55
2023/04/11 04:55:13;;;;;;;;;;;;;;;16.26;46.47;101008.09;7260535;19;154075;-55
2023/04/11 04:57:41;;;;;;;;;;;;;;;16.23;46.82;101003.91;7253391;19;154195;-55
2023/04/11 05:00:10;;;;;;;;;;;;;;;16.23;46.51;101012.25;7261040;19;154192;-55
2023/04/11 05:02:39;;;;;;;;;;;;;;;16.21;46.60;101011.72;7254337;19;155239;-55
2023/04/11 05:05:06;;;;;;;;;;;;;;;16.22;46.48;101009.75;7253334;19;154150;-55
2023/04/11 05:07:34;;;;;;;;;;;;;;;16.21;46.83;101017.28;7252816;19;153869;-55
2023/04/11 05:10:01;;;;;;;;;;;;;;;16.21;46.90;101011.72;7253388;19;153483;-55
2023/04/11 05:12:28;;;;;;;;;;;;;;;16.20;46.91;101023.97;7253154;19;153509;-56
2023/04/11 05:14:55;;;;;;;;;;;;;;;16.21;46.68;101017.28;7252510;19;154257;-55
2023/04/11 05:17:22;;;;;;;;;;;;;;;16.22;46.56;101032.03;7256894;19;154108;-56
2023/04/11 05:19:51;;;;;;;;;;;;;;;16.24;46.43;101027.03;7257415;19;153435;-55
2023/04/11 05:22:18;;;;;;;;;;;;;;;16.20;46.85;101034.28;7257687;19;155398;-55
2023/04/11 05:24:45;;;;;;;;;;;;;;;16.19;46.57;101040.97;7253202;19;153659;-55
2023/04/11 05:27:12;;;;;;;;;;;;;;;16.21;46.51;101039.59;7254515;19;154036;-55
2023/04/11 05:29:39;;;;;;;;;;;;;;;16.20;46.65;101037.91;7255792;19;153125;-55
2023/04/11 05:32:06;;;;;;;;;;;;;;;16.18;46.75;101051.28;7253392;19;153665;-55
2023/04/11 05:34:33;;;;;;;;;;;;;;;16.17;46.59;101049.59;7250818;19;154489;-54
2023/04/11 05:37:00;;;;;;;;;;;;;;;16.19;46.75;101057.69;7254586;19;154469;-55
2023/04/11 05:39:27;;;;;;;;;;;;;;;16.19;46.63;101063.25;7260175;19;153887;-55
2023/04/11 05:41:55;;;;;;;;;;;;;;;16.19;46.67;101064.09;7258745;19;154121;-55
2023/04/11 05:44:22;;;;;;;;;;;;;;;16.16;46.64;101067.47;7249932;19;153912;-55
2023/04/11 05:46:49;;;;;;;;;;;;;;;16.15;46.76;101063.00;7250520;19;152746;-55
2023/04/11 05:49:16;;;;;;;;;;;;;;;16.18;46.60;101068.00;7252561;19;154159;-55
2023/04/11 05:51:43;;;;;;;;;;;;;;;16.19;46.83;101068.84;7253762;19;153942;-55
2023/04/11 05:54:10;;;;;;;;;;;;;;;16.16;46.89;101073.03;7252277;19;153623;-55
2023/04/11 05:56:41;;;;;;;;;;;;;;;16.16;46.72;101069.41;7252100;19;153332;-55
2023/04/11 05:59:08;;;;;;;;;;;;;;;16.15;46.77;101071.34;7252795;19;154637;-54
2023/04/11 06:01:38;;;;;;;;;;;;;;;16.11;46.67;101073.03;7261057;19;153438;-55
2023/04/11 06:04:05;;;;;;;;;;;;;;;16.12;46.80;101082.22;7250732;19;154281;-55
2023/04/11 06:06:34;;;;;;;;;;;;;;;16.14;46.64;101072.47;7253382;19;153124;-55
2023/04/11 06:09:02;;;;;;;;;;;;;;;16.15;46.84;101074.13;7256351;19;155260;-55
2023/04/11 06:11:29;;;;;;;;;;;;;;;16.15;46.76;101079.72;7251765;19;153824;-55
2023/04/11 06:13:56;;;;;;;;;;;;;;;16.11;46.81;101075.81;7253488;19;153786;-56
2023/04/11 06:16:24;;;;;;;;;;;;;;;16.14;46.72;101083.59;7251803;19;156005;-55
2023/04/11 06:18:51;;;;;;;;;;;;;;;16.12;46.49;101088.63;7250855;19;154185;-55
2023/04/11 06:21:18;;;;;;;;;;;;;;;16.12;46.48;101085.84;7253442;19;153306;-55
2023/04/11 06:23:45;;;;;;;;;;;;;;;16.15;46.41;101095.59;7260254;19;153531;-55
2023/04/11 06:26:12;;;;;;;;;;;;;;;16.14;46.53;101088.34;7253243;19;154308;-55
2023/04/11 06:28:39;;;;;;;;;;;;;;;16.12;46.58;101091.41;7255258;19;153672;-55
2023/04/11 06:31:07;;;;;;;;;;;;;;;16.12;46.67;101101.72;7255747;19;153494;-55
2023/04/11 06:33:34;;;;;;;;;;;;;;;16.12;46.37;101097.00;7254349;19;153133;-55
2023/04/11 06:36:01;;;;;;;;;;;;;;;16.11;46.78;101103.69;7249884;19;154287;-55
2023/04/11 06:38:33;;;;;;;;;;;;;;;16.09;46.40;101100.31;7250298;19;154046;-55
2023/04/11 06:41:00;;;;;;;;;;;;;;;16.09;46.74;101105.88;7254707;19;153766;-55
2023/04/11 06:43:27;;;;;;;;;;;;;;;16.13;46.55;101093.06;7252058;19;152115;-55
2023/04/11 06:45:54;;;;;;;;;;;;;;;16.11;46.47;101089.75;7256492;19;154530;-55
2023/04/11 06:48:22;;;;;;;;;;;;;;;16.11;46.64;101100.03;7248884;19;152747;-56
2023/04/11 06:50:49;;;;;;;;;;;;;;;16.06;46.88;101089.72;7250982;19;153827;-55
2023/04/11 06:53:16;;;;;;;;;;;;;;;16.06;46.61;101095.31;7250617;19;153950;-55
2023/04/11 06:55:46;;;;;;;;;;;;;;;16.10;46.80;101099.22;7252703;19;154086;-55
2023/04/11 06:58:13;;;;;;;;;;;;;;;16.11;46.50;101095.31;7251036;19;154230;-55
2023/04/11 07:00:41;;;;;;;;;;;;;;;16.09;46.40;101100.31;7257235;19;153815;-55
2023/04/11 07:03:08;;;;;;;;;;;;;;;16.09;46.45;101103.09;7250831;19;154534;-55
2023/04/11 07:05:35;;;;;;;;;;;;;;;16.06;46.59;101103.66;7256989;19;153252;-55
2023/04/11 07:08:05;;;;;;;;;;;;;;;16.07;46.47;101107.28;7252530;19;153484;-55
2023/04/11 07:10:32;;;;;;;;;;;;;;;16.06;46.44;101111.19;7257507;19;154680;-55
2023/04/11 07:12:59;;;;;;;;;;;;;;;16.05;46.50;101106.72;7248881;19;153979;-55
2023/04/11 07:15:26;;;;;;;;;;;;;;;16.06;46.44;101116.75;7250674;19;155219;-55
2023/04/11 07:17:53;;;;;;;;;;;;;;;16.06;46.29;101125.94;7246092;19;153776;-55
2023/04/11 07:20:20;;;;;;;;;;;;;;;16.03;46.45;101118.97;7251231;19;153325;-55
2023/04/11 07:22:47;;;;;;;;;;;;;;;16.02;46.50;101114.53;7251880;19;153980;-56
2023/04/11 07:25:15;;;;;;;;;;;;;;;16.02;46.59;101102.53;7252922;19;154150;-55
2023/04/11 07:27:42;;;;;;;;;;;;;;;16.01;46.60;101110.06;7257311;19;153424;-55
2023/04/11 07:30:10;;;;;;;;;;;;;;;16.02;46.35;101113.69;7250410;19;155225;-55
2023/04/11 07:32:37;;;;;;;;;;;;;;;16.02;46.37;101114.53;7252932;19;153513;-55
2023/04/11 07:35:04;;;;;;;;;;;;;;;16.01;46.31;101112.00;7249974;19;154628;-55
2023/04/11 07:37:31;;;;;;;;;;;;;;;16.00;46.20;101108.38;7248323;19;153946;-55
2023/04/11 07:39:58;;;;;;;;;;;;;;;16.00;46.47;101108.38;7249557;19;153222;-54
2023/04/11 07:42:25;;;;;;;;;;;;;;;16.01;46.15;101114.78;7252197;19;152682;-55
2023/04/11 07:44:52;;;;;;;;;;;;;;;15.97;46.32;101111.72;7247674;19;154580;-55
2023/04/11 07:47:20;;;;;;;;;;;;;;;15.99;46.05;101123.41;7252268;19;153245;-55
2023/04/11 07:49:47;;;;;;;;;;;;;;;16.00;46.39;101113.09;7256969;19;153535;-55
2023/04/11 07:52:14;;;;;;;;;;;;;;;15.98;46.11;101096.69;7248222;19;153902;-58
2023/04/11 07:54:41;;;;;;;;;;;;;;;16.01;46.22;101101.69;7249328;19;154854;-55
2023/04/11 07:57:08;;;;;;;;;;;;;;;15.99;46.13;101097.50;7247663;19;155197;-55
2023/04/11 07:59:36;;;;;;;;;;;;;;;15.99;46.18;101094.69;7251231;19;154165;-55
2023/04/11 08:02:05;;;;;;;;;;;;;;;15.98;46.29;101093.06;7250207;19;153665;-55
2023/04/11 08:04:33;;;;;;;;;;;;;;;15.98;46.06;101104.19;7248111;19;153959;-55
2023/04/11 08:07:01;;;;;;;;;;;;;;;15.96;46.18;101092.47;7247097;19;153186;-55
2023/04/11 08:09:28;;;;;;;;;;;;;;;15.96;45.94;101087.75;7250245;19;153977;-55
2023/04/11 08:11:55;;;;;;;;;;;;;;;15.96;46.18;101076.59;7259288;19;155094;-55
2023/04/11 08:14:23;;;;;;;;;;;;;;;16.00;46.12;101082.44;7246897;19;153667;-55
2023/04/11 08:16:51;;;;;;;;;;;;;;;15.96;46.20;101071.03;7245217;19;154396;-55
2023/04/11 08:19:20;;;;;;;;;;;;;;;15.97;46.37;101074.66;7244550;19;154147;-55
2023/04/11 08:21:47;;;;;;;;;;;;;;;15.95;46.01;101080.50;7251564;19;153645;-55
2023/04/11 08:24:14;;;;;;;;;;;;;;;15.96;46.01;101082.16;7246106;19;154717;-54
2023/04/11 08:26:41;;;;;;;;;;;;;;;15.98;45.95;101084.69;7248920;19;153677;-55
2023/04/11 08:29:10;;;;;;;;;;;;;;;15.94;45.96;101084.38;7255929;19;153939;-55
2023/04/11 08:31:42;;;;;;;;;;;;;;;15.93;46.44;101076.31;7255854;19;153707;-54
2023/04/11 08:34:11;;;;;;;;;;;;;;;15.96;46.45;101075.75;7260095;19;151906;-54
2023/04/11 08:36:41;;;;;;;;;;;;;;;15.99;45.91;101091.91;7252824;19;153363;-55
2023/04/11 08:39:10;;;;;;;;;;;;;;;15.98;45.96;101088.31;7253848;19;154216;-55
2023/04/11 08:41:52;;;;;;;;;;;;;;;15.98;46.07;101071.59;7258106;19;154471;-55
2023/04/11 08:44:20;;;;;;;;;;;;;;;15.96;45.93;101081.34;7257467;19;155502;-56
2023/04/11 08:46:47;;;;;;;;;;;;;;;15.99;46.07;101069.63;7255340;19;152813;-55
2023/04/11 08:49:14;;;;;;;;;;;;;;;15.99;46.33;101069.63;7255108;19;154432;-55
2023/04/11 08:51:43;;;;;;;;;;;;;;;16.01;46.19;101070.19;7254514;19;155319;-55
2023/04/11 08:54:11;;;;;;;;;;;;;;;16.02;46.17;101075.50;7263490;19;154190;-55
2023/04/11 08:56:40;;;;;;;;;;;;;;;16.01;46.30;101073.84;7252280;19;153793;-55
2023/04/11 08:59:07;;;;;;;;;;;;;;;16.00;46.11;101071.31;7256361;19;154409;-55
2023/04/11 09:01:36;;;;;;;;;;;;;;;16.02;45.84;101071.88;7254082;19;154834;-55
2023/04/11 09:04:04;;;;;;;;;;;;;;;16.04;46.30;101075.22;7255196;19;153497;-56
2023/04/11 09:06:32;;;;;;;;;;;;;;;16.02;45.99;101075.50;7254498;19;153037;-55
2023/04/11 09:09:00;;;;;;;;;;;;;;;16.04;45.79;101083.56;7258604;19;153906;-55
2023/04/11 09:11:28;;;;;;;;;;;;;;;16.02;46.17;101080.25;7254975;19;153953;-55
2023/04/11 09:13:58;;;;;;;;;;;;;;;16.05;46.22;101079.69;7255006;19;154405;-55
2023/04/11 09:16:25;;;;;;;;;;;;;;;16.02;45.97;101071.88;7256903;19;154227;-55
2023/04/11 09:18:53;;;;;;;;;;;;;;;16.06;46.05;101083.31;7250612;19;153002;-55
2023/04/11 09:21:20;;;;;;;;;;;;;;;16.05;45.90;101082.47;7254922;19;153762;-55
2023/04/11 09:23:47;;;;;;;;;;;;;;;16.05;46.05;101076.91;7253001;19;154181;-55
2023/04/11 09:26:25;;;;;;;;;;;;;;;16.06;45.61;101092.50;7255260;19;152651;-55
2023/04/11 09:28:52;;;;;;;;;;;;;;;16.05;45.95;101082.47;7252577;19;153118;-55
2023/04/11 09:31:20;;;;;;;;;;;;;;;16.07;45.81;101074.69;7250741;19;152738;-55
2023/04/11 09:33:53;;;;;;;;;;;;;;;16.10;45.78;101076.06;7251838;19;153444;-55
2023/04/11 09:36:22;;;;;;;;;;;;;;;16.10;45.71;101076.91;7251061;19;155472;-55
2023/04/11 09:38:50;;;;;;;;;;;;;;;16.11;45.77;101072.19;7259383;19;154010;-55
2023/04/11 09:41:20;;;;;;;;;;;;;;;16.11;45.83;101086.13;7251212;19;153913;-55
2023/04/11 09:43:49;;;;;;;;;;;;;;;16.10;45.51;101068.56;7254697;19;153888;-55
2023/04/11 09:46:19;;;;;;;;;;;;;;;16.14;45.69;101069.66;7253782;19;154346;-55
2023/04/11 09:48:47;;;;;;;;;;;;;;;16.19;45.76;101069.69;7253156;19;154039;-55
2023/04/11 09:51:15;;;;;;;;;;;;;;;16.17;45.54;101071.88;7253316;19;153498;-55
2023/04/11 09:54:00;;;;;;;;;;;;;;;16.21;45.61;101072.19;7258025;19;154108;-55
2023/04/11 09:56:27;;;;;;;;;;;;;;;16.22;45.19;101059.91;7249337;19;153078;-55
2023/04/11 09:58:56;;;;;;;;;;;;;;;16.22;45.45;101046.81;7253797;19;153317;-55
2023/04/11 10:01:24;;;;;;;;;;;;;;;16.23;45.65;101042.09;7258171;19;153681;-55
2023/04/11 10:03:52;;;;;;;;;;;;;;;16.24;45.77;101033.47;7255705;19;154589;-55
2023/04/11 10:06:30;;;;;;;;;;;;;;;16.26;45.77;101035.97;7248239;19;153347;-55
2023/04/11 10:09:00;;;;;;;;;;;;;;;16.27;45.81;101026.47;7252322;19;154927;-55
2023/04/11 10:11:27;;;;;;;;;;;;;;;16.32;45.30;101023.69;7256567;19;154134;-54
2023/04/11 10:13:56;;;;;;;;;;;;;;;16.30;45.62;101017.56;7257555;19;153216;-54
2023/04/11 10:16:25;;;;;;;;;;;;;;;16.35;45.56;101025.94;7250555;19;153922;-55
2023/04/11 10:18:52;;;;;;;;;;;;;;;16.36;45.19;101017.28;7252906;19;154144;-55
2023/04/11 10:21:23;;;;;;;;;;;;;;;16.39;45.11;101013.97;7267747;19;153307;-56
2023/04/11 10:23:53;;;;;;;;;;;;;;;16.41;45.34;101008.06;7285558;19;153771;-56
2023/04/11 10:26:40;;;;;;;;;;;;;;;16.37;45.12;101009.75;7266525;19;153705;-56
2023/04/11 10:32:01;;;;;;;;;;;;;;;16.35;44.93;101018.38;7249838;19;155604;-56
2023/04/11 10:34:28;;;;;;;;;;;;;;;16.36;45.17;101008.91;7250672;19;152097;-56
2023/04/11 10:36:58;;;;;;;;;;;;;;;16.37;45.01;100993.03;7255528;19;153718;-56
2023/04/11 10:39:29;;;;;;;;;;;;;;;16.39;45.15;100985.22;7255396;19;154234;-55
2023/04/11 10:42:16;;;;;;;;;;;;;;;16.48;44.93;100983.56;7252294;19;151977;-56
2023/04/11 10:44:43;;;;;;;;;;;;;;;16.56;44.94;100976.56;7249498;19;153926;-56
2023/04/11 10:47:16;;;;;;;;;;;;;;;16.60;44.60;100977.69;7258196;19;153381;-56
2023/04/11 10:49:44;;;;;;;;;;;;;;;16.55;44.70;100972.09;7249143;19;153226;-56
2023/04/11 10:52:16;;;;;;;;;;;;;;;16.54;44.52;100967.63;7249628;19;153577;-56
2023/04/11 10:54:45;;;;;;;;;;;;;;;16.54;44.46;100967.63;7251911;19;154638;-56
2023/04/11 10:57:12;;;;;;;;;;;;;;;16.49;44.76;100954.53;7251797;19;155194;-55
2023/04/11 10:59:41;;;;;;;;;;;;;;;16.48;44.64;100954.81;7249076;19;154473;-56
2023/04/11 11:02:08;;;;;;;;;;;;;;;16.51;44.74;100962.63;7253787;19;154698;-56
2023/04/11 11:04:37;;;;;;;;;;;;;;;16.55;44.49;100956.19;7247959;19;154038;-57
2023/04/11 11:07:06;;;;;;;;;;;;;;;16.56;44.29;100952.31;7258458;19;155067;-56
2023/04/11 11:09:33;;;;;;;;;;;;;;;16.55;44.28;100953.41;7250312;19;153462;-56
2023/04/11 11:12:05;;;;;;;;;;;;;;;16.59;44.08;100943.38;7256383;19;154082;-55
2023/04/11 11:14:33;;;;;;;;;;;;;;;16.58;44.16;100952.06;7255153;19;152683;-56
2023/04/11 11:17:01;;;;;;;;;;;;;;;16.58;44.01;100938.13;7249078;19;153215;-56
2023/04/11 11:19:29;;;;;;;;;;;;;;;16.65;44.02;100947.00;7252130;19;154524;-56
2023/04/11 11:24:27;;;;;;;;;;;;;;;16.64;44.36;100929.44;7255382;19;152991;-55
2023/04/11 11:26:55;;;;;;;;;;;;;;;16.64;44.26;100935.00;7251135;19;155379;-55
2023/04/11 11:29:26;;;;;;;;;;;;;;;16.63;44.10;100927.75;7261778;19;154458;-55
2023/04/11 11:31:54;;;;;;;;;;;;;;;16.63;44.34;100930.53;7254582;19;154581;-55
2023/04/11 11:34:24;;;;;;;;;;;;;;;16.64;44.11;100925.81;7255007;19;153193;-55
2023/04/11 11:36:52;;;;;;;;;;;;;;;16.66;44.00;100931.94;7258153;19;153636;-55
2023/04/11 11:39:20;;;;;;;;;;;;;;;16.66;43.94;100926.38;7255993;19;153797;-55
2023/04/11 11:41:49;;;;;;;;;;;;;;;16.62;44.02;100928.91;7256070;19;154546;-55
2023/04/11 11:44:20;;;;;;;;;;;;;;;16.60;44.28;100935.84;7255382;19;154872;-55
2023/04/11 11:46:51;;;;;;;;;;;;;;;16.59;44.14;100928.59;7254379;19;153261;-55
2023/04/11 11:49:18;;;;;;;;;;;;;;;16.58;44.28;100913.81;7252565;19;153796;-55
2023/04/11 11:51:46;;;;;;;;;;;;;;;16.57;43.85;100903.78;7262144;19;153583;-55
2023/04/11 11:54:14;;;;;;;;;;;;;;;16.56;44.21;100902.09;7255532;19;153773;-54
2023/04/11 11:56:48;;;;;;;;;;;;;;;16.56;44.02;100901.25;7252962;19;153757;-55
2023/04/11 11:59:24;;;;;;;;;;;;;;;16.60;43.89;100888.44;7252878;19;155902;-55
2023/04/11 12:01:56;;;;;;;;;;;;;;;16.63;44.32;100885.06;7251832;19;153836;-55
2023/04/11 12:04:23;;;;;;;;;;;;;;;16.62;44.09;100881.47;7262535;19;154798;-55
2023/04/11 12:06:53;;;;;;;;;;;;;;;16.64;43.81;100870.03;7265326;19;154983;-55
2023/04/11 12:09:20;;;;;;;;;;;;;;;16.64;43.89;100870.03;7261908;19;154374;-55
2023/04/11 12:11:53;;;;;;;;;;;;;;;16.65;44.08;100863.34;7261067;19;153402;-55
2023/04/11 12:14:21;;;;;;;;;;;;;;;16.67;43.95;100859.13;7263162;19;154413;-55
2023/04/11 12:16:52;;;;;;;;;;;;;;;16.67;43.93;100864.69;7257163;19;153423;-55
2023/04/11 12:19:20;;;;;;;;;;;;;;;16.66;43.82;100851.06;7250973;19;156004;-56
2023/04/11 12:21:47;;;;;;;;;;;;;;;16.64;43.95;100845.75;7259647;19;153790;-56
2023/04/11 12:24:15;;;;;;;;;;;;;;;16.65;44.01;100858.59;7255851;19;155584;-55
2023/04/11 12:26:44;;;;;;;;;;;;;;;16.61;43.98;100851.91;7254120;19;154796;-55
2023/04/11 12:29:32;;;;;;;;;;;;;;;16.57;44.28;100869.47;7260150;19;153652;-56
2023/04/11 12:31:59;;;;;;;;;;;;;;;16.59;44.55;100870.03;7257312;19;153149;-55
2023/04/11 12:34:27;;;;;;;;;;;;;;;16.57;44.48;100872.25;7254781;19;155646;-55
2023/04/11 12:36:56;;;;;;;;;;;;;;;16.56;44.74;100853.84;7264311;19;152492;-55
2023/04/11 12:39:24;;;;;;;;;;;;;;;16.52;44.57;100852.75;7256146;19;155138;-55